createdAt,value
2022-09-27T00:01:17.911Z,1.02
2022-09-27T00:03:46.464Z,0.60
2022-09-27T00:06:16.254Z,2.78
2022-09-27T00:08:44.578Z,0.50
2022-09-27T00:11:18.801Z,0.77
2022-09-27T00:13:48.234Z,0.70
2022-09-27T00:16:16.341Z,1.48
2022-09-27T00:18:45.134Z,1.10
2022-09-27T00:21:14.575Z,0.70
2022-09-27T00:23:43.071Z,0.50
2022-09-27T00:26:13.316Z,0.75
2022-09-27T00:28:41.635Z,0.80
2022-09-27T00:31:21.868Z,1.00
2022-09-27T00:33:51.306Z,0.43
2022-09-27T00:36:20.676Z,0.50
2022-09-27T00:38:49.315Z,1.75
2022-09-27T00:41:19.592Z,0.50
2022-09-27T00:43:50.416Z,0.40
2022-09-27T00:46:26.198Z,1.52
2022-09-27T00:49:06.755Z,1.20
2022-09-27T00:51:38.691Z,0.43
2022-09-27T00:54:10.351Z,0.70
2022-09-27T00:56:38.874Z,0.70
2022-09-27T00:59:12.958Z,0.75
2022-09-27T01:01:42.983Z,1.20
2022-09-27T01:04:12.886Z,2.15
2022-09-27T01:06:41.168Z,1.30
2022-09-27T01:09:11.746Z,0.80
2022-09-27T01:11:46.627Z,0.70
2022-09-27T01:14:42.440Z,2.25
2022-09-27T01:17:27.797Z,0.70
2022-09-27T01:20:16.196Z,1.80
2022-09-27T01:22:55.057Z,0.80
2022-09-27T01:25:51.789Z,1.23
2022-09-27T01:28:24.503Z,2.20
2022-09-27T01:30:57.681Z,1.10
2022-09-27T01:33:36.930Z,1.10
2022-09-27T01:36:15.885Z,0.70
2022-09-27T01:38:53.172Z,0.55
2022-09-27T01:41:31.909Z,1.27
2022-09-27T01:44:08.754Z,1.25
2022-09-27T01:46:41.666Z,1.45
2022-09-27T01:49:13.526Z,1.00
2022-09-27T01:51:46.610Z,0.85
2022-09-27T01:54:18.883Z,0.50
2022-09-27T01:56:50.077Z,0.82
2022-09-27T01:59:25.631Z,1.42
2022-09-27T02:01:59.799Z,0.85
2022-09-27T02:04:32.286Z,0.70
2022-09-27T02:07:03.710Z,0.50
2022-09-27T02:09:37.339Z,0.80
2022-09-27T02:12:11.115Z,0.93
2022-09-27T02:14:45.669Z,2.05
2022-09-27T02:17:25.199Z,1.38
2022-09-27T02:20:01.278Z,1.25
2022-09-27T02:22:36.387Z,0.50
2022-09-27T02:25:12.214Z,0.77
2022-09-27T02:27:46.998Z,1.92
2022-09-27T02:30:16.532Z,2.47
2022-09-27T02:32:46.479Z,1.13
2022-09-27T02:35:20.118Z,1.90
2022-09-27T02:37:49.142Z,0.65
2022-09-27T02:40:17.336Z,1.48
2022-09-27T02:42:46.248Z,0.65
2022-09-27T02:45:16.709Z,1.45
2022-09-27T02:48:09.183Z,0.75
2022-09-27T02:50:53.935Z,1.27
2022-09-27T02:53:33.373Z,1.02
2022-09-27T02:56:11.269Z,1.38
2022-09-27T02:58:53.087Z,1.15
2022-09-27T03:01:30.897Z,0.80
2022-09-27T03:04:07.951Z,0.70
2022-09-27T03:06:37.153Z,0.75
2022-09-27T03:09:05.201Z,0.98
2022-09-27T03:11:33.668Z,0.70
2022-09-27T03:14:08.854Z,0.55
2022-09-27T03:16:37.695Z,0.80
2022-09-27T03:19:07.862Z,0.40
2022-09-27T03:21:35.881Z,0.50
2022-09-27T03:24:04.418Z,0.40
2022-09-27T03:26:32.523Z,0.77
2022-09-27T03:29:00.607Z,0.50
2022-09-27T03:31:28.700Z,0.80
2022-09-27T03:33:57.302Z,0.65
2022-09-27T03:36:27.375Z,0.47
2022-09-27T03:38:55.484Z,0.80
2022-09-27T03:41:23.891Z,0.50
2022-09-27T03:43:52.021Z,0.57
2022-09-27T03:46:20.051Z,1.10
2022-09-27T03:48:48.101Z,0.43
2022-09-27T03:51:16.202Z,0.57
2022-09-27T03:53:45.555Z,1.15
2022-09-27T03:56:14.129Z,0.80
2022-09-27T03:58:42.167Z,0.80
2022-09-27T04:01:10.315Z,0.57
2022-09-27T04:03:38.559Z,0.50
2022-09-27T04:06:07.207Z,1.35
2022-09-27T04:08:36.604Z,1.35
2022-09-27T04:11:06.255Z,0.77
2022-09-27T04:13:34.317Z,0.60
2022-09-27T04:16:03.716Z,1.58
2022-09-27T04:18:31.745Z,2.78
2022-09-27T04:20:59.811Z,0.88
2022-09-27T04:23:30.037Z,0.80
2022-09-27T04:25:58.669Z,0.82
2022-09-27T04:28:30.198Z,1.23
2022-09-27T04:30:58.542Z,1.58
2022-09-27T04:33:26.993Z,1.95
2022-09-27T04:36:12.606Z,1.55
2022-09-27T04:38:40.658Z,1.63
2022-09-27T04:41:08.722Z,1.23
2022-09-27T04:43:38.545Z,2.08
2022-09-27T04:46:06.865Z,2.70
2022-09-27T04:48:35.400Z,1.10
2022-09-27T04:51:04.200Z,1.00
2022-09-27T04:53:32.799Z,1.48
2022-09-27T04:56:02.958Z,2.42
2022-09-27T04:58:31.042Z,1.08
2022-09-27T05:01:03.058Z,1.00
2022-09-27T05:03:31.681Z,0.60
2022-09-27T05:06:01.018Z,0.77
2022-09-27T05:08:29.105Z,1.15
2022-09-27T05:10:57.126Z,1.40
2022-09-27T05:13:25.354Z,3.33
2022-09-27T05:15:53.401Z,1.45
2022-09-27T05:18:22.948Z,1.08
2022-09-27T05:20:50.972Z,0.65
2022-09-27T05:23:20.501Z,0.80
2022-09-27T05:25:48.503Z,0.93
2022-09-27T05:28:16.515Z,1.63
2022-09-27T05:30:46.183Z,0.70
2022-09-27T05:33:14.358Z,2.55
2022-09-27T05:35:47.850Z,3.70
2022-09-27T05:38:15.847Z,0.95
2022-09-27T05:40:44.435Z,1.45
2022-09-27T05:43:13.000Z,2.70
2022-09-27T05:45:41.039Z,2.90
2022-09-27T05:48:09.188Z,1.17
2022-09-27T05:50:37.258Z,1.63
2022-09-27T05:53:06.718Z,1.80
2022-09-27T05:55:35.238Z,1.85
2022-09-27T05:58:05.494Z,1.05
2022-09-27T06:00:35.268Z,1.13
2022-09-27T06:03:05.256Z,3.28
2022-09-27T06:05:37.367Z,1.25
2022-09-27T06:08:08.386Z,2.22
2022-09-27T06:10:37.039Z,1.70
2022-09-27T06:13:06.991Z,2.45
2022-09-27T06:15:36.321Z,2.65
2022-09-27T06:18:06.266Z,2.88
2022-09-27T06:20:34.725Z,3.95
2022-09-27T06:23:08.614Z,2.58
2022-09-27T06:25:37.116Z,3.60
2022-09-27T06:28:05.775Z,3.35
2022-09-27T06:30:34.114Z,1.95
2022-09-27T06:33:03.713Z,3.33
2022-09-27T06:35:31.798Z,3.90
2022-09-27T06:38:00.211Z,1.95
2022-09-27T06:40:29.569Z,1.92
2022-09-27T06:43:03.958Z,2.65
2022-09-27T06:45:32.803Z,2.90
2022-09-27T06:48:02.587Z,1.92
2022-09-27T06:50:30.795Z,2.17
2022-09-27T06:52:58.792Z,2.10
2022-09-27T06:55:26.911Z,1.55
2022-09-27T06:58:14.821Z,1.02
2022-09-27T07:00:43.815Z,1.40
2022-09-27T07:03:13.634Z,1.75
2022-09-27T07:05:42.423Z,1.35
2022-09-27T07:08:12.001Z,2.05
2022-09-27T07:10:41.466Z,1.20
2022-09-27T07:13:12.440Z,1.58
2022-09-27T07:15:42.863Z,2.63
2022-09-27T07:18:11.321Z,2.60
2022-09-27T07:20:39.910Z,2.45
2022-09-27T07:23:09.280Z,1.92
2022-09-27T07:25:37.765Z,6.82
2022-09-27T07:28:07.504Z,5.78
2022-09-27T07:30:39.192Z,6.60
2022-09-27T07:33:08.764Z,3.35
2022-09-27T07:35:40.379Z,4.22
2022-09-27T07:38:10.139Z,4.88
2022-09-27T07:40:38.757Z,1.67
2022-09-27T07:43:08.398Z,3.35
2022-09-27T07:45:38.216Z,4.72
2022-09-27T07:48:07.229Z,4.47
2022-09-27T07:50:35.538Z,6.78
2022-09-27T07:53:04.892Z,3.33
2022-09-27T07:55:33.483Z,3.38
2022-09-27T07:58:05.875Z,4.97
2022-09-27T08:00:34.226Z,7.78
2022-09-27T08:03:07.905Z,2.25
2022-09-27T08:05:37.183Z,3.10
2022-09-27T08:08:06.190Z,3.40
2022-09-27T08:10:35.594Z,3.47
2022-09-27T08:13:05.150Z,2.47
2022-09-27T08:15:36.055Z,1.75
2022-09-27T08:18:04.101Z,2.40
2022-09-27T08:20:33.762Z,4.65
2022-09-27T08:23:04.361Z,3.78
2022-09-27T08:25:32.905Z,4.07
2022-09-27T08:28:03.451Z,2.25
2022-09-27T08:30:32.588Z,2.28
2022-09-27T08:33:02.562Z,3.55
2022-09-27T08:35:33.979Z,2.35
2022-09-27T08:38:06.081Z,2.97
2022-09-27T08:40:47.761Z,1.87
2022-09-27T08:43:21.271Z,2.53
2022-09-27T08:46:06.570Z,3.35
2022-09-27T08:48:37.694Z,5.40
2022-09-27T08:51:07.414Z,2.33
2022-09-27T08:53:41.968Z,2.75
2022-09-27T08:56:12.174Z,1.77
2022-09-27T08:58:47.091Z,1.98
2022-09-27T09:01:17.422Z,3.58
2022-09-27T09:03:50.358Z,2.92
2022-09-27T09:06:23.388Z,1.00
2022-09-27T09:09:06.148Z,1.98
2022-09-27T09:12:07.142Z,1.55
2022-09-27T09:14:49.335Z,0.80
2022-09-27T09:17:26.074Z,1.25
2022-09-27T09:20:13.422Z,3.85
2022-09-27T09:22:58.601Z,1.92
2022-09-27T09:25:35.482Z,1.10
2022-09-27T09:28:16.843Z,3.70
2022-09-27T09:30:50.896Z,2.47
2022-09-27T09:33:26.954Z,1.00
2022-09-27T09:36:00.306Z,2.92
2022-09-27T09:38:36.918Z,2.75
2022-09-27T09:41:14.612Z,3.03
2022-09-27T09:43:46.329Z,1.40
2022-09-27T09:46:21.261Z,0.90
2022-09-27T09:48:56.182Z,1.13
2022-09-27T09:51:29.306Z,2.38
2022-09-27T09:54:00.284Z,1.48
2022-09-27T09:56:33.214Z,2.38
2022-09-27T09:59:04.283Z,3.58
2022-09-27T10:01:37.630Z,2.00
2022-09-27T10:04:05.843Z,3.83
2022-09-27T10:06:34.101Z,2.65
2022-09-27T10:09:02.616Z,3.22
2022-09-27T10:11:38.218Z,2.85
2022-09-27T10:14:13.085Z,1.70
2022-09-27T10:16:43.287Z,3.75
2022-09-27T10:19:12.295Z,2.78
2022-09-27T10:21:45.192Z,3.67
2022-09-27T10:24:18.057Z,2.25
2022-09-27T10:26:51.006Z,3.50
2022-09-27T10:29:37.318Z,3.42
2022-09-27T10:32:20.582Z,4.03
2022-09-27T10:34:49.243Z,4.90
2022-09-27T10:37:20.498Z,2.65
2022-09-27T10:39:50.964Z,2.88
2022-09-27T10:42:33.050Z,3.28
2022-09-27T10:45:27.327Z,3.00
2022-09-27T10:47:55.942Z,3.08
2022-09-27T10:50:48.860Z,2.15
2022-09-27T10:53:19.141Z,4.10
2022-09-27T10:55:50.316Z,6.03
2022-09-27T10:58:21.878Z,3.80
2022-09-27T11:00:59.140Z,3.80
2022-09-27T11:03:29.115Z,3.50
2022-09-27T11:05:59.319Z,2.17
2022-09-27T11:08:33.431Z,3.70
2022-09-27T11:11:19.940Z,4.97
2022-09-27T11:14:04.480Z,13.88
2022-09-27T11:16:46.932Z,2.53
2022-09-27T11:19:35.085Z,2.13
2022-09-27T11:22:16.606Z,3.33
2022-09-27T11:25:00.685Z,4.10
2022-09-27T11:27:39.268Z,5.95
2022-09-27T11:30:12.817Z,4.03
2022-09-27T11:33:05.455Z,2.40
2022-09-27T11:35:51.677Z,3.70
2022-09-27T11:38:51.185Z,2.40
2022-09-27T11:41:39.018Z,4.45
2022-09-27T11:44:33.800Z,1.70
2022-09-27T11:47:09.363Z,1.83
2022-09-27T11:50:09.838Z,1.10
2022-09-27T11:52:51.537Z,1.85
2022-09-27T11:55:32.085Z,1.70
2022-09-27T11:58:06.013Z,3.38
2022-09-27T12:00:44.951Z,2.25
2022-09-27T12:03:55.783Z,2.45
2022-09-27T12:06:31.841Z,1.58
2022-09-27T12:09:06.334Z,1.27
2022-09-27T12:11:40.043Z,0.70
2022-09-27T12:14:13.885Z,0.80
2022-09-27T12:16:43.633Z,2.75
2022-09-27T12:19:19.514Z,0.20
2022-09-27T12:21:49.271Z,2.33
2022-09-27T12:24:22.436Z,1.95
2022-09-27T12:26:53.903Z,1.48
2022-09-27T12:29:26.246Z,1.38
2022-09-27T12:32:00.700Z,2.17
2022-09-27T12:34:35.343Z,1.35
2022-09-27T12:37:12.190Z,1.85
2022-09-27T12:39:48.975Z,0.88
2022-09-27T12:42:22.406Z,2.38
2022-09-27T12:44:51.941Z,1.25
2022-09-27T12:47:38.323Z,0.50
2022-09-27T12:50:15.214Z,1.48
2022-09-27T12:52:48.824Z,2.15
2022-09-27T12:55:49.918Z,2.72
2022-09-27T12:58:50.465Z,1.73
2022-09-27T13:01:32.181Z,0.30
2022-09-27T13:04:22.921Z,0.65
2022-09-27T13:07:03.508Z,2.17
2022-09-27T13:09:57.305Z,0.40
2022-09-27T13:12:27.909Z,0.35
2022-09-27T13:15:02.065Z,0.40
2022-09-27T13:17:50.077Z,2.38
2022-09-27T13:20:44.472Z,0.20
2022-09-27T13:23:59.239Z,0.95
2022-09-27T13:27:01.099Z,1.10
2022-09-27T13:29:33.194Z,0.20
2022-09-27T13:32:28.718Z,1.13
2022-09-27T13:35:03.372Z,0.25
2022-09-27T13:37:45.630Z,2.58
2022-09-27T13:40:28.366Z,0.30
2022-09-27T13:43:34.777Z,0.30
2022-09-27T13:46:07.881Z,1.13
2022-09-27T13:48:47.342Z,0.70
2022-09-27T13:51:29.241Z,0.52
2022-09-27T13:53:59.789Z,1.67
2022-09-27T13:56:50.914Z,0.20
2022-09-27T13:59:25.816Z,0.38
2022-09-27T14:01:56.590Z,0.55
2022-09-27T14:04:30.569Z,2.60
2022-09-27T14:07:01.222Z,2.55
2022-09-27T14:09:32.771Z,0.30
2022-09-27T14:12:03.852Z,1.33
2022-09-27T14:14:35.192Z,1.50
2022-09-27T14:17:09.990Z,0.73
2022-09-27T14:19:42.350Z,0.20
2022-09-27T14:22:14.328Z,0.40
2022-09-27T14:24:49.112Z,0.63
2022-09-27T14:27:20.375Z,0.28
2022-09-27T14:29:53.338Z,0.30
2022-09-27T14:32:23.462Z,0.35
2022-09-27T14:35:07.014Z,0.73
2022-09-27T14:37:36.456Z,0.30
2022-09-27T14:40:08.581Z,0.73
2022-09-27T14:42:38.531Z,0.30
2022-09-27T14:45:21.097Z,0.20
2022-09-27T14:47:51.123Z,1.58
2022-09-27T14:50:23.046Z,0.80
2022-09-27T14:52:55.418Z,0.35
2022-09-27T14:55:25.293Z,0.60
2022-09-27T14:57:55.155Z,1.48
2022-09-27T15:00:26.618Z,3.30
2022-09-27T15:02:56.252Z,0.38
2022-09-27T15:05:27.611Z,0.30
2022-09-27T15:07:58.426Z,1.38
2022-09-27T15:10:31.327Z,0.40
2022-09-27T15:13:02.152Z,0.95
2022-09-27T15:15:33.984Z,1.45
2022-09-27T15:18:03.216Z,0.55
2022-09-27T15:20:35.490Z,1.20
2022-09-27T15:23:05.084Z,0.40
2022-09-27T15:25:36.322Z,3.83
2022-09-27T15:28:07.559Z,0.43
2022-09-27T15:30:39.972Z,0.30
2022-09-27T15:33:19.483Z,1.10
2022-09-27T15:35:51.788Z,0.30
2022-09-27T15:38:27.685Z,1.20
2022-09-27T15:41:01.458Z,0.73
2022-09-27T15:43:31.741Z,1.08
2022-09-27T15:46:03.823Z,0.57
2022-09-27T15:48:33.368Z,0.98
2022-09-27T15:51:03.473Z,0.38
2022-09-27T15:53:45.542Z,1.85
2022-09-27T15:56:16.443Z,1.13
2022-09-27T15:58:45.796Z,0.55
2022-09-27T16:01:21.354Z,0.52
2022-09-27T16:03:50.618Z,0.98
2022-09-27T16:06:19.564Z,0.60
2022-09-27T16:08:47.843Z,0.68
2022-09-27T16:11:18.245Z,0.40
2022-09-27T16:13:46.365Z,0.73
2022-09-27T16:16:18.897Z,0.45
2022-09-27T16:18:48.328Z,1.27
2022-09-27T16:21:16.940Z,2.15
2022-09-27T16:23:44.972Z,0.73
2022-09-27T16:26:13.808Z,1.33
2022-09-27T16:28:42.133Z,0.50
2022-09-27T16:31:11.700Z,1.77
2022-09-27T16:33:41.215Z,0.50
2022-09-27T16:36:14.558Z,1.27
2022-09-27T16:38:43.360Z,0.57
2022-09-27T16:41:11.693Z,1.10
2022-09-27T16:43:40.155Z,1.15
2022-09-27T16:46:11.749Z,0.73
2022-09-27T16:48:41.411Z,1.10
2022-09-27T16:51:30.429Z,0.45
2022-09-27T16:53:58.712Z,0.47
2022-09-27T16:56:28.543Z,1.02
2022-09-27T16:58:56.573Z,0.82
2022-09-27T17:01:24.671Z,0.35
2022-09-27T17:03:57.470Z,0.70
2022-09-27T17:06:26.026Z,0.32
2022-09-27T17:08:54.049Z,1.50
2022-09-27T17:11:23.031Z,0.98
2022-09-27T17:13:55.811Z,0.40
2022-09-27T17:16:24.343Z,1.90
2022-09-27T17:18:53.838Z,1.00
2022-09-27T17:21:22.121Z,0.45
2022-09-27T17:23:50.380Z,1.38
2022-09-27T17:26:20.833Z,0.40
2022-09-27T17:28:49.954Z,0.40
2022-09-27T17:31:19.859Z,0.40
2022-09-27T17:33:55.569Z,1.17
2022-09-27T17:36:29.028Z,0.55
2022-09-27T17:38:58.617Z,0.55
2022-09-27T17:41:28.509Z,1.02
2022-09-27T17:43:59.253Z,1.33
2022-09-27T17:46:28.854Z,0.65
2022-09-27T17:49:15.087Z,1.58
2022-09-27T17:51:47.828Z,0.70
2022-09-27T17:54:16.919Z,0.73
2022-09-27T17:56:45.284Z,0.90
2022-09-27T17:59:16.129Z,1.00
2022-09-27T18:01:45.610Z,0.82
2022-09-27T18:04:17.719Z,0.50
2022-09-27T18:06:48.248Z,1.13
2022-09-27T18:09:17.978Z,0.60
2022-09-27T18:11:46.253Z,1.95
2022-09-27T18:14:14.556Z,0.85
2022-09-27T18:16:44.226Z,1.10
2022-09-27T18:19:14.977Z,0.50
2022-09-27T18:21:43.439Z,2.50
2022-09-27T18:24:14.942Z,1.23
2022-09-27T18:26:44.179Z,2.50
2022-09-27T18:29:14.653Z,1.98
2022-09-27T18:31:47.495Z,0.80
2022-09-27T18:34:17.190Z,1.85
2022-09-27T18:36:45.485Z,0.40
2022-09-27T18:39:18.311Z,2.50
2022-09-27T18:41:48.588Z,1.52
2022-09-27T18:44:17.711Z,0.80
2022-09-27T18:46:46.690Z,1.13
2022-09-27T18:49:16.245Z,0.95
2022-09-27T18:51:47.102Z,1.15
2022-09-27T18:54:19.211Z,1.38
2022-09-27T18:56:48.443Z,2.10
2022-09-27T18:59:17.272Z,2.40
2022-09-27T19:01:46.339Z,0.88
2022-09-27T19:04:19.210Z,1.38
2022-09-27T19:06:49.723Z,1.10
2022-09-27T19:09:19.136Z,1.13
2022-09-27T19:11:47.188Z,0.73
2022-09-27T19:14:18.117Z,0.80
2022-09-27T19:16:47.567Z,2.58
2022-09-27T19:19:16.204Z,1.15
2022-09-27T19:21:44.448Z,1.67
2022-09-27T19:24:14.032Z,2.47
2022-09-27T19:26:43.566Z,1.40
2022-09-27T19:29:13.029Z,2.13
2022-09-27T19:31:42.168Z,1.30
2022-09-27T19:34:10.814Z,2.38
2022-09-27T19:36:38.868Z,1.40
2022-09-27T19:39:06.865Z,3.10
2022-09-27T19:41:34.900Z,0.90
2022-09-27T19:44:04.437Z,2.70
2022-09-27T19:46:32.474Z,0.95
2022-09-27T19:49:01.804Z,2.58
2022-09-27T19:51:31.010Z,1.65
2022-09-27T19:53:59.048Z,2.75
2022-09-27T19:56:27.198Z,2.78
2022-09-27T19:58:56.032Z,1.30
2022-09-27T20:01:26.304Z,1.45
2022-09-27T20:03:56.777Z,1.38
2022-09-27T20:06:25.025Z,1.90
2022-09-27T20:08:53.177Z,3.17
2022-09-27T20:11:22.593Z,1.73
2022-09-27T20:13:52.830Z,2.50
2022-09-27T20:16:22.505Z,1.88
2022-09-27T20:18:53.935Z,1.23
2022-09-27T20:21:23.205Z,2.45
2022-09-27T20:23:52.639Z,1.70
2022-09-27T20:26:22.634Z,3.08
2022-09-27T20:28:52.625Z,1.73
2022-09-27T20:31:24.254Z,3.08
2022-09-27T20:33:53.735Z,2.13
2022-09-27T20:36:23.173Z,2.53
2022-09-27T20:38:53.018Z,1.92
2022-09-27T20:41:22.573Z,1.50
2022-09-27T20:43:54.584Z,2.40
2022-09-27T20:46:23.813Z,1.60
2022-09-27T20:48:55.801Z,2.40
2022-09-27T20:51:24.631Z,2.05
2022-09-27T20:53:53.096Z,2.45
2022-09-27T20:56:23.533Z,1.73
2022-09-27T20:58:53.579Z,2.33
2022-09-27T21:01:22.868Z,2.47
2022-09-27T21:03:56.871Z,4.47
2022-09-27T21:06:25.149Z,1.77
2022-09-27T21:08:53.539Z,4.30
2022-09-27T21:11:22.615Z,2.85
2022-09-27T21:13:51.921Z,1.63
2022-09-27T21:16:22.168Z,2.33
2022-09-27T21:18:51.608Z,2.67
2022-09-27T21:21:22.556Z,2.28
2022-09-27T21:23:55.543Z,2.00
2022-09-27T21:26:24.766Z,2.70
2022-09-27T21:28:54.760Z,2.28
2022-09-27T21:31:24.353Z,2.42
2022-09-27T21:33:54.669Z,2.58
2022-09-27T21:36:25.207Z,3.05
2022-09-27T21:38:53.429Z,2.08
2022-09-27T21:41:21.813Z,1.70
2022-09-27T21:43:50.411Z,2.35
2022-09-27T21:46:20.811Z,1.98
2022-09-27T21:48:51.103Z,3.38
2022-09-27T21:51:21.343Z,2.15
2022-09-27T21:53:53.535Z,3.90
2022-09-27T21:56:22.716Z,2.05
2022-09-27T21:58:50.850Z,2.10
2022-09-27T22:01:21.212Z,2.80
2022-09-27T22:03:50.506Z,1.60
2022-09-27T22:06:21.278Z,3.38
2022-09-27T22:08:51.911Z,2.50
2022-09-27T22:11:21.989Z,4.35
2022-09-27T22:13:50.050Z,4.55
2022-09-27T22:16:20.163Z,3.38
2022-09-27T22:18:49.481Z,2.85
2022-09-27T22:21:19.917Z,3.45
2022-09-27T22:23:48.042Z,3.08
2022-09-27T22:26:19.083Z,2.78
2022-09-27T22:28:47.806Z,2.90
2022-09-27T22:31:18.634Z,4.25
2022-09-27T22:33:50.293Z,2.17
2022-09-27T22:36:18.819Z,2.80
2022-09-27T22:38:47.282Z,1.90
2022-09-27T22:41:16.147Z,4.18
2022-09-27T22:43:45.989Z,4.28
2022-09-27T22:46:14.586Z,2.53
2022-09-27T22:48:43.310Z,2.95
2022-09-27T22:51:11.558Z,1.88
2022-09-27T22:53:39.887Z,2.30
2022-09-27T22:56:09.947Z,2.05
2022-09-27T22:58:38.926Z,2.88
2022-09-27T23:01:14.480Z,3.58
2022-09-27T23:03:43.445Z,2.40
2022-09-27T23:06:12.593Z,2.83
2022-09-27T23:08:41.248Z,3.28
2022-09-27T23:11:11.613Z,1.77
2022-09-27T23:13:41.282Z,2.72
2022-09-27T23:16:12.690Z,2.38
2022-09-27T23:18:41.052Z,3.85
2022-09-27T23:21:10.864Z,4.22
2022-09-27T23:23:41.156Z,5.28
2022-09-27T23:26:10.846Z,4.30
2022-09-27T23:28:39.406Z,5.13
2022-09-27T23:31:08.882Z,5.07
2022-09-27T23:33:40.440Z,3.88
2022-09-27T23:36:10.905Z,5.40
2022-09-27T23:38:40.358Z,5.07
2022-09-27T23:41:09.390Z,5.40
2022-09-27T23:43:37.686Z,4.10
2022-09-27T23:46:07.690Z,5.43
2022-09-27T23:48:35.920Z,5.10
2022-09-27T23:51:06.594Z,4.88
2022-09-27T23:53:35.199Z,5.95
2022-09-27T23:56:05.577Z,7.20
2022-09-27T23:58:34.654Z,5.43
